Time;durP1;ratioP1;P1;durP2;ratioP2;P2;SDS_P1;SDS_P2;PMS_P1;PMS_P2;Temp;Humidity;BMP_temperature;BMP_pressure;BME280_temperature;BME280_humidity;BME280_pressure;Samples;Min_cycle;Max_cycle;Signal;HPM_P1;HPM_P2
2022/01/31 00:01:05;;;;;;;;;;;15.50;99.90;;;;;;5056741;28;1164;-53
2022/01/31 00:03:34;;;;;;;;;;;15.40;99.90;;;;;;5056886;28;871;-53
2022/01/31 00:06:01;;;;;;;;;;;15.40;99.90;;;;;;5037551;28;1213;-53
2022/01/31 00:08:27;;;;;;;;;;;15.40;99.90;;;;;;5056647;28;907;-52
2022/01/31 00:10:53;;;;;;;;;;;15.30;99.90;;;;;;5056570;28;788;-53
2022/01/31 00:13:30;;;;;;;;;;;15.30;99.90;;;;;;5056486;28;793;-45
2022/01/31 00:15:57;;;;;;;;;;;15.30;99.90;;;;;;5056400;28;1937;-45
2022/01/31 00:18:23;;;;;;;;;;;15.30;99.90;;;;;;5055964;28;1034;-52
2022/01/31 00:20:49;;;;;;;;;;;15.20;99.90;;;;;;5056522;28;829;-45
2022/01/31 00:23:16;;;;;;;;;;;15.20;99.90;;;;;;5038446;28;928;-45
2022/01/31 00:25:42;;;;;;;;;;;15.20;99.90;;;;;;5056164;28;743;-52
2022/01/31 00:28:08;;;;;;;;;;;15.20;99.90;;;;;;5053181;28;1144;-46
2022/01/31 00:30:35;;;;;;;;;;;15.10;99.90;;;;;;5056052;28;836;-45
2022/01/31 00:33:01;;;;;;;;;;;15.10;99.90;;;;;;5056136;28;761;-45
2022/01/31 00:35:27;;;;;;;;;;;15.10;99.90;;;;;;5052764;28;1922;-53
2022/01/31 00:37:53;;;;;;;;;;;15.00;99.90;;;;;;5055878;28;837;-45
2022/01/31 00:40:19;;;;;;;;;;;15.00;99.90;;;;;;5055727;28;901;-52
2022/01/31 00:42:46;;;;;;;;;;;15.00;99.90;;;;;;5056010;28;763;-52
2022/01/31 00:45:24;;;;;;;;;;;15.00;99.90;;;;;;5055175;28;995;-45
2022/01/31 00:48:00;;;;;;;;;;;14.90;99.90;;;;;;5056069;28;813;-45
2022/01/31 00:50:27;;;;;;;;;;;14.90;99.90;;;;;;5054496;28;1377;-45
2022/01/31 00:52:53;;;;;;;;;;;14.90;99.90;;;;;;5053079;28;1242;-45
2022/01/31 00:55:19;;;;;;;;;;;14.90;99.90;;;;;;5055415;28;1979;-45
2022/01/31 00:57:45;;;;;;;;;;;14.80;99.90;;;;;;5037851;28;1382;-53
2022/01/31 01:00:12;;;;;;;;;;;14.80;99.90;;;;;;5016794;28;1119504;-45
2022/01/31 01:02:40;;;;;;;;;;;14.80;99.90;;;;;;5039423;28;769;-45
2022/01/31 01:05:08;;;;;;;;;;;14.80;99.90;;;;;;5053202;28;889;-53
2022/01/31 01:07:35;;;;;;;;;;;14.70;99.90;;;;;;5052318;28;964;-52
2022/01/31 01:10:02;;;;;;;;;;;14.70;99.90;;;;;;5052728;28;845;-52
2022/01/31 01:12:28;;;;;;;;;;;14.70;99.90;;;;;;5052803;28;781;-52
2022/01/31 01:14:55;;;;;;;;;;;14.70;99.90;;;;;;5038781;28;1280;-45
2022/01/31 01:17:21;;;;;;;;;;;14.60;99.90;;;;;;5056281;28;1910;-52
2022/01/31 01:19:47;;;;;;;;;;;14.60;99.90;;;;;;5056263;28;772;-45
2022/01/31 01:22:13;;;;;;;;;;;14.60;99.90;;;;;;5056285;28;837;-46
2022/01/31 01:24:40;;;;;;;;;;;14.60;99.90;;;;;;5055593;28;1301;-45
2022/01/31 01:27:09;;;;;;;;;;;14.50;99.90;;;;;;5056188;28;746;-45
2022/01/31 01:29:36;;;;;;;;;;;14.50;99.90;;;;;;5021212;28;1023;-52
2022/01/31 01:32:03;;;;;;;;;;;14.50;99.90;;;;;;5056133;28;828;-52
2022/01/31 01:34:32;;;;;;;;;;;14.50;99.90;;;;;;5055436;28;1325;-52
2022/01/31 01:37:00;;;;;;;;;;;14.40;99.90;;;;;;5055133;28;1977;-52
2022/01/31 01:39:26;;;;;;;;;;;14.40;99.90;;;;;;5054657;28;1382;-52
2022/01/31 01:41:53;;;;;;;;;;;14.40;99.90;;;;;;5055789;28;929;-52
2022/01/31 01:44:18;;;;;;;;;;;14.40;99.90;;;;;;5055235;28;1080;-45
2022/01/31 01:46:44;;;;;;;;;;;14.40;99.90;;;;;;5055842;28;746;-45
2022/01/31 01:49:13;;;;;;;;;;;14.30;99.90;;;;;;5055083;28;922;-45
2022/01/31 01:51:42;;;;;;;;;;;14.30;99.90;;;;;;5055734;28;785;-46
2022/01/31 01:54:10;;;;;;;;;;;14.30;99.90;;;;;;5053855;28;825;-45
2022/01/31 01:56:38;;;;;;;;;;;14.30;99.90;;;;;;5052755;28;1968;-53
2022/01/31 01:59:05;;;;;;;;;;;14.30;99.90;;;;;;5053227;28;782;-53
2022/01/31 02:01:32;;;;;;;;;;;14.20;99.90;;;;;;5054909;28;1072;-53
2022/01/31 02:03:58;;;;;;;;;;;14.20;99.90;;;;;;5055501;28;840;-46
2022/01/31 02:06:24;;;;;;;;;;;14.20;99.90;;;;;;5055507;28;798;-53
2022/01/31 02:08:51;;;;;;;;;;;14.20;99.90;;;;;;5055220;28;801;-53
2022/01/31 02:11:20;;;;;;;;;;;14.20;99.90;;;;;;5055416;28;793;-46
2022/01/31 02:13:46;;;;;;;;;;;14.20;99.90;;;;;;5055494;28;760;-53
2022/01/31 02:16:13;;;;;;;;;;;14.10;99.90;;;;;;5055229;28;1960;-46
2022/01/31 02:18:47;;;;;;;;;;;14.10;99.90;;;;;;5055063;28;912;-52
2022/01/31 02:21:15;;;;;;;;;;;14.10;99.90;;;;;;5055283;28;775;-46
2022/01/31 02:23:41;;;;;;;;;;;14.10;99.90;;;;;;5055025;28;805;-46
2022/01/31 02:26:07;;;;;;;;;;;14.10;99.90;;;;;;5055095;28;887;-46
2022/01/31 02:28:34;;;;;;;;;;;14.10;99.90;;;;;;5054333;28;1264;-52
2022/01/31 02:31:01;;;;;;;;;;;14.00;99.90;;;;;;5037316;28;1758;-46
2022/01/31 02:33:28;;;;;;;;;;;14.00;99.90;;;;;;5052170;28;965;-46
2022/01/31 02:35:56;;;;;;;;;;;14.00;99.90;;;;;;5056819;28;1897;-53
2022/01/31 02:38:23;;;;;;;;;;;14.00;99.90;;;;;;5057215;28;1268;-53
2022/01/31 02:40:50;;;;;;;;;;;14.00;99.90;;;;;;5054440;28;1309;-53
2022/01/31 02:43:22;;;;;;;;;;;14.00;99.90;;;;;;5035325;28;1314;-52
2022/01/31 02:45:51;;;;;;;;;;;13.90;99.90;;;;;;5054472;28;1105;-53
2022/01/31 02:48:20;;;;;;;;;;;13.90;99.90;;;;;;5055192;28;820;-52
2022/01/31 02:50:46;;;;;;;;;;;13.90;99.90;;;;;;5021343;28;929;-53
2022/01/31 02:53:20;;;;;;;;;;;13.90;99.90;;;;;;5055150;28;817;-52
2022/01/31 02:55:50;;;;;;;;;;;13.90;99.90;;;;;;5038516;28;1898;-53
2022/01/31 02:58:16;;;;;;;;;;;13.80;99.90;;;;;;5055754;28;889;-46
2022/01/31 03:00:44;;;;;;;;;;;13.80;99.90;;;;;;5054525;28;1516;-53
2022/01/31 03:03:10;;;;;;;;;;;13.80;99.90;;;;;;5054984;28;781;-46
2022/01/31 03:05:36;;;;;;;;;;;13.80;99.90;;;;;;5054855;28;900;-46
2022/01/31 03:08:02;;;;;;;;;;;13.80;99.90;;;;;;5058797;28;750;-46
2022/01/31 03:10:29;;;;;;;;;;;13.80;99.90;;;;;;5058902;28;987;-46
2022/01/31 03:12:55;;;;;;;;;;;13.80;99.90;;;;;;5058500;28;1026;-53
2022/01/31 03:15:21;;;;;;;;;;;13.70;99.90;;;;;;5058547;28;785;-53
2022/01/31 03:17:49;;;;;;;;;;;13.70;99.90;;;;;;5058492;28;1910;-53
2022/01/31 03:20:17;;;;;;;;;;;13.70;99.90;;;;;;5058917;28;934;-53
2022/01/31 03:22:44;;;;;;;;;;;13.70;99.90;;;;;;5059102;28;887;-46
2022/01/31 03:25:10;;;;;;;;;;;13.60;99.90;;;;;;5041387;28;1287;-46
2022/01/31 03:27:37;;;;;;;;;;;13.60;99.90;;;;;;5058973;28;904;-53
2022/01/31 03:30:04;;;;;;;;;;;13.60;99.90;;;;;;5058761;28;996;-46
2022/01/31 03:32:30;;;;;;;;;;;13.60;99.90;;;;;;5059192;28;743;-45
2022/01/31 03:34:56;;;;;;;;;;;13.60;99.90;;;;;;5041294;28;860;-46
2022/01/31 03:37:22;;;;;;;;;;;13.60;99.90;;;;;;5058289;28;1979;-46
2022/01/31 03:39:51;;;;;;;;;;;13.60;99.90;;;;;;5058991;28;869;-46
2022/01/31 03:42:18;;;;;;;;;;;13.50;99.90;;;;;;5064151;28;1389;-46
2022/01/31 03:44:49;;;;;;;;;;;13.50;99.90;;;;;;5057182;28;884;-46
2022/01/31 03:47:15;;;;;;;;;;;13.50;99.90;;;;;;5057212;28;842;-46
2022/01/31 03:49:41;;;;;;;;;;;13.50;99.90;;;;;;5057894;28;1010;-52
2022/01/31 03:52:07;;;;;;;;;;;13.50;99.90;;;;;;5056487;28;838;-52
2022/01/31 03:54:33;;;;;;;;;;;13.50;99.90;;;;;;5058796;28;893;-46
2022/01/31 03:57:00;;;;;;;;;;;13.50;99.90;;;;;;5058222;28;1909;-46
2022/01/31 03:59:25;;;;;;;;;;;13.40;99.90;;;;;;5058117;28;1266;-46
2022/01/31 04:01:53;;;;;;;;;;;13.40;99.90;;;;;;5061274;28;1390;-48
2022/01/31 04:04:20;;;;;;;;;;;13.40;99.90;;;;;;5058838;28;817;-46
2022/01/31 04:06:47;;;;;;;;;;;13.40;99.90;;;;;;5040476;28;928;-46
2022/01/31 04:09:14;;;;;;;;;;;13.30;99.90;;;;;;5058418;28;841;-46
2022/01/31 04:11:41;;;;;;;;;;;13.30;99.90;;;;;;5058228;28;860;-46
2022/01/31 04:14:08;;;;;;;;;;;13.40;99.90;;;;;;5058097;28;916;-46
2022/01/31 04:16:34;;;;;;;;;;;13.30;99.90;;;;;;5057552;28;1914;-52
2022/01/31 04:19:00;;;;;;;;;;;13.30;99.90;;;;;;5057601;28;1018;-46
2022/01/31 04:21:26;;;;;;;;;;;13.30;99.90;;;;;;5057578;28;892;-46
2022/01/31 04:23:53;;;;;;;;;;;13.30;99.90;;;;;;5057554;28;829;-46
2022/01/31 04:26:21;;;;;;;;;;;13.30;99.90;;;;;;5022808;28;904;-53
2022/01/31 04:28:51;;;;;;;;;;;13.30;99.90;;;;;;5038978;28;959;-53
2022/01/31 04:34:03;;;;;;;;;;;13.20;99.90;;;;;;5057327;28;755;-46
2022/01/31 04:36:29;;;;;;;;;;;13.20;99.90;;;;;;5054968;28;1977;-46
2022/01/31 04:38:56;;;;;;;;;;;13.20;99.90;;;;;;5055679;28;1234;-47
2022/01/31 04:41:23;;;;;;;;;;;13.10;99.90;;;;;;5056931;28;1119;-46
2022/01/31 04:43:51;;;;;;;;;;;13.10;99.90;;;;;;5022118;28;932;-53
2022/01/31 04:46:19;;;;;;;;;;;13.10;99.90;;;;;;5056836;28;956;-53
2022/01/31 04:48:46;;;;;;;;;;;13.10;99.90;;;;;;5022484;28;993;-53
2022/01/31 04:51:12;;;;;;;;;;;13.10;99.90;;;;;;5056815;28;809;-53
2022/01/31 04:53:39;;;;;;;;;;;13.00;99.90;;;;;;5056900;28;837;-53
2022/01/31 04:56:05;;;;;;;;;;;13.10;99.90;;;;;;5056880;28;1910;-53
2022/01/31 04:58:32;;;;;;;;;;;13.00;99.90;;;;;;5056799;28;784;-53
2022/01/31 05:00:59;;;;;;;;;;;13.00;99.90;;;;;;5056757;28;1120;-46
2022/01/31 05:03:25;;;;;;;;;;;13.00;99.90;;;;;;5057027;28;1935;-53
2022/01/31 05:05:51;;;;;;;;;;;13.00;99.90;;;;;;5021892;28;865;-46
2022/01/31 05:08:20;;;;;;;;;;;13.00;99.90;;;;;;5021997;28;907;-46
2022/01/31 05:10:49;;;;;;;;;;;13.00;99.90;;;;;;5021938;28;1062;-46
2022/01/31 05:13:16;;;;;;;;;;;12.90;99.90;;;;;;5056148;28;896;-53
2022/01/31 05:15:43;;;;;;;;;;;13.00;99.90;;;;;;5055538;28;1910;-53
2022/01/31 05:18:09;;;;;;;;;;;12.90;99.90;;;;;;5055870;28;862;-53
2022/01/31 05:20:35;;;;;;;;;;;12.90;99.90;;;;;;5056380;28;797;-53
2022/01/31 05:23:02;;;;;;;;;;;12.90;99.90;;;;;;5056276;28;910;-53
2022/01/31 05:25:29;;;;;;;;;;;12.90;99.90;;;;;;5052639;28;797;-46
2022/01/31 05:27:55;;;;;;;;;;;12.80;99.90;;;;;;5039882;28;1017;-53
2022/01/31 05:30:22;;;;;;;;;;;12.90;99.90;;;;;;5013801;28;998;-53
2022/01/31 05:32:49;;;;;;;;;;;12.90;99.90;;;;;;5014269;28;1004;-54
2022/01/31 05:35:15;;;;;;;;;;;12.80;99.90;;;;;;5014516;28;868;-53
2022/01/31 05:37:42;;;;;;;;;;;12.80;99.90;;;;;;5014564;28;1902;-53
2022/01/31 05:40:08;;;;;;;;;;;12.80;99.90;;;;;;5014102;28;968;-46
2022/01/31 05:42:34;;;;;;;;;;;12.80;99.90;;;;;;5014303;28;814;-46
2022/01/31 05:45:01;;;;;;;;;;;12.80;99.90;;;;;;5014331;28;877;-46
2022/01/31 05:47:28;;;;;;;;;;;12.80;99.90;;;;;;5014382;28;841;-53
2022/01/31 05:49:56;;;;;;;;;;;12.80;99.90;;;;;;5014297;28;864;-53
2022/01/31 05:52:23;;;;;;;;;;;12.80;99.90;;;;;;5014353;28;923;-53
2022/01/31 05:54:49;;;;;;;;;;;12.80;99.90;;;;;;5014264;28;845;-53
2022/01/31 05:57:15;;;;;;;;;;;12.80;99.90;;;;;;5013909;28;1902;-53
2022/01/31 05:59:41;;;;;;;;;;;12.70;99.90;;;;;;5017816;28;1041;-46
2022/01/31 06:02:07;;;;;;;;;;;12.80;99.90;;;;;;5051657;28;883;-46
2022/01/31 06:04:34;;;;;;;;;;;12.80;99.90;;;;;;5055558;28;813;-46
2022/01/31 06:07:00;;;;;;;;;;;12.80;99.90;;;;;;5055582;28;868;-53
2022/01/31 06:09:28;;;;;;;;;;;12.80;99.90;;;;;;5020736;28;1021;-46
2022/01/31 06:11:55;;;;;;;;;;;12.90;99.90;;;;;;5055309;28;817;-46
2022/01/31 06:14:21;;;;;;;;;;;12.90;99.90;;;;;;5053723;28;947;-46
2022/01/31 06:16:46;;;;;;;;;;;12.90;99.90;;;;;;5055371;28;1898;-52
2022/01/31 06:19:12;;;;;;;;;;;12.90;99.90;;;;;;5055419;28;773;-46
2022/01/31 06:21:38;;;;;;;;;;;13.00;99.90;;;;;;5055508;28;873;-53
2022/01/31 06:24:09;;;;;;;;;;;13.10;99.90;;;;;;5055492;28;816;-46
2022/01/31 06:26:36;;;;;;;;;;;13.10;99.90;;;;;;5053419;28;1013;-52
2022/01/31 06:29:04;;;;;;;;;;;13.20;99.90;;;;;;5058031;28;789;-52
2022/01/31 06:31:30;;;;;;;;;;;13.20;99.90;;;;;;5055131;28;856;-53
2022/01/31 06:33:57;;;;;;;;;;;13.20;99.90;;;;;;5052652;28;1385;-53
2022/01/31 06:36:25;;;;;;;;;;;13.30;99.90;;;;;;5052698;28;1901;-52
2022/01/31 06:38:52;;;;;;;;;;;13.40;99.90;;;;;;5055275;28;908;-52
2022/01/31 06:41:19;;;;;;;;;;;13.40;99.90;;;;;;5052653;28;928;-53
2022/01/31 06:43:45;;;;;;;;;;;13.50;99.90;;;;;;5055056;28;1075;-52
2022/01/31 06:46:11;;;;;;;;;;;13.50;99.90;;;;;;5053230;28;1278;-53
2022/01/31 06:48:37;;;;;;;;;;;13.60;99.90;;;;;;5051878;28;935;-52
2022/01/31 06:51:04;;;;;;;;;;;13.60;99.90;;;;;;5054912;28;767;-52
2022/01/31 06:53:30;;;;;;;;;;;13.70;99.90;;;;;;5054892;28;739;-52
2022/01/31 06:55:59;;;;;;;;;;;13.70;99.90;;;;;;5055153;28;758;-46
2022/01/31 06:58:25;;;;;;;;;;;13.70;99.90;;;;;;5054527;28;1164;-53
2022/01/31 07:00:51;;;;;;;;;;;13.80;99.90;;;;;;5054400;28;1184;-52
2022/01/31 07:03:17;;;;;;;;;;;13.80;99.90;;;;;;5053956;28;826;-52
2022/01/31 07:05:44;;;;;;;;;;;13.80;99.90;;;;;;5054526;28;1158;-53
2022/01/31 07:08:10;;;;;;;;;;;13.90;99.90;;;;;;5037230;28;971;-53
2022/01/31 07:10:37;;;;;;;;;;;13.90;99.90;;;;;;5054308;28;893;-52
2022/01/31 07:13:23;;;;;;;;;;;13.90;99.90;;;;;;5054516;28;813;-52
2022/01/31 07:15:49;;;;;;;;;;;14.00;99.90;;;;;;5032898;28;1055;-51
2022/01/31 07:18:15;;;;;;;;;;;14.00;99.90;;;;;;5032905;28;1989;-46
2022/01/31 07:20:43;;;;;;;;;;;14.10;99.90;;;;;;5032894;28;1178;-46
2022/01/31 07:23:50;;;;;;;;;;;14.10;99.90;;;;;;5032354;28;1032;-45
2022/01/31 07:25:55;;;;;;;;;;;14.10;99.90;;;;;;5032497;28;1484;-45
2022/01/31 07:28:22;;;;;;;;;;;14.20;99.90;;;;;;5033100;28;860;-45
2022/01/31 07:30:49;;;;;;;;;;;14.20;99.90;;;;;;5032285;28;1026;-52
2022/01/31 07:33:16;;;;;;;;;;;14.30;99.90;;;;;;5016075;28;949;-51
2022/01/31 07:35:43;;;;;;;;;;;14.30;99.90;;;;;;5032358;28;863;-45
2022/01/31 07:38:10;;;;;;;;;;;14.30;99.90;;;;;;5015983;28;1980;-51
2022/01/31 07:40:37;;;;;;;;;;;14.40;99.90;;;;;;5032848;28;845;-46
2022/01/31 07:43:04;;;;;;;;;;;14.40;99.90;;;;;;5032617;28;1023;-51
2022/01/31 07:45:30;;;;;;;;;;;14.40;99.90;;;;;;5032734;28;901;-51
2022/01/31 07:47:56;;;;;;;;;;;14.50;99.90;;;;;;5053144;28;898;-52
2022/01/31 07:50:22;;;;;;;;;;;14.50;99.90;;;;;;5054598;28;856;-45
2022/01/31 07:52:48;;;;;;;;;;;14.50;99.90;;;;;;5056281;28;832;-52
2022/01/31 07:55:13;;;;;;;;;;;14.60;99.90;;;;;;5058292;28;741;-46
2022/01/31 07:57:45;;;;;;;;;;;14.60;99.90;;;;;;5058974;28;1944;-46
2022/01/31 08:00:11;;;;;;;;;;;14.60;99.90;;;;;;5057749;28;1045;-51
2022/01/31 08:02:39;;;;;;;;;;;14.60;99.90;;;;;;5057767;28;781;-46
2022/01/31 08:05:07;;;;;;;;;;;14.70;99.90;;;;;;5040037;28;894;-46
2022/01/31 08:07:37;;;;;;;;;;;14.70;99.90;;;;;;5057730;28;873;-52
2022/01/31 08:10:06;;;;;;;;;;;14.70;99.90;;;;;;5057678;28;1160;-45
2022/01/31 08:12:36;;;;;;;;;;;14.80;99.90;;;;;;5057571;28;802;-45
2022/01/31 08:15:07;;;;;;;;;;;14.80;99.90;;;;;;5057549;28;880;-46
2022/01/31 08:17:33;;;;;;;;;;;14.80;99.90;;;;;;5020439;28;1910;-52
2022/01/31 08:20:00;;;;;;;;;;;14.80;99.90;;;;;;5057793;28;762;-46
2022/01/31 08:22:25;;;;;;;;;;;14.80;99.90;;;;;;5015972;28;1098;-53
2022/01/31 08:24:51;;;;;;;;;;;14.80;99.90;;;;;;5011614;28;1009;-52
2022/01/31 08:27:18;;;;;;;;;;;14.80;99.90;;;;;;5015940;28;964;-52
2022/01/31 08:29:44;;;;;;;;;;;14.90;99.90;;;;;;5013381;28;1295;-52
2022/01/31 08:32:33;;;;;;;;;;;14.90;99.90;;;;;;5016279;28;1049;-52
2022/01/31 08:37:45;;;;;;;;;;;14.90;99.90;;;;;;5016872;28;1961;-52
2022/01/31 08:40:12;;;;;;;;;;;14.90;99.90;;;;;;5016741;28;822;-46
2022/01/31 08:42:38;;;;;;;;;;;15.00;99.90;;;;;;5013140;28;812;-46
2022/01/31 08:45:06;;;;;;;;;;;15.00;99.90;;;;;;5016658;28;955;-52
2022/01/31 08:47:34;;;;;;;;;;;15.00;99.90;;;;;;5000062;28;947;-45
2022/01/31 08:50:00;;;;;;;;;;;15.00;99.90;;;;;;5000033;28;1000;-46
2022/01/31 08:52:26;;;;;;;;;;;15.00;99.90;;;;;;5020256;28;877;-46
2022/01/31 08:54:52;;;;;;;;;;;15.00;99.90;;;;;;5056526;28;1416;-52
2022/01/31 08:57:18;;;;;;;;;;;15.00;99.90;;;;;;5059420;28;1977;-52
2022/01/31 08:59:50;;;;;;;;;;;15.10;99.90;;;;;;5057276;28;1105;-46
2022/01/31 09:02:18;;;;;;;;;;;15.00;99.90;;;;;;5039775;28;905;-45
2022/01/31 09:04:52;;;;;;;;;;;15.10;99.90;;;;;;5038521;28;833;-52
2022/01/31 09:07:19;;;;;;;;;;;15.10;99.90;;;;;;5057532;28;1150;-46
2022/01/31 09:09:50;;;;;;;;;;;15.10;99.90;;;;;;5057438;28;773;-45
2022/01/31 09:12:16;;;;;;;;;;;15.10;99.90;;;;;;5058681;28;1364;-45
2022/01/31 09:14:43;;;;;;;;;;;15.10;99.90;;;;;;5056416;28;1401;-45
2022/01/31 09:17:10;;;;;;;;;;;15.10;99.90;;;;;;5056919;28;1973;-52
2022/01/31 09:19:36;;;;;;;;;;;15.10;99.90;;;;;;5055327;28;1183;-52
2022/01/31 09:22:03;;;;;;;;;;;15.20;99.90;;;;;;5056829;28;1078;-52
2022/01/31 09:24:29;;;;;;;;;;;15.20;99.90;;;;;;5056800;28;1150;-52
2022/01/31 09:26:55;;;;;;;;;;;15.20;99.90;;;;;;5056070;28;1155;-52
2022/01/31 09:29:21;;;;;;;;;;;15.20;99.90;;;;;;5060152;28;1322;-52
2022/01/31 09:31:47;;;;;;;;;;;15.20;99.90;;;;;;5056428;28;1135;-52
2022/01/31 09:34:15;;;;;;;;;;;15.20;99.90;;;;;;5056661;28;1282;-52
2022/01/31 09:36:42;;;;;;;;;;;15.30;99.90;;;;;;5056144;28;1914;-46
2022/01/31 09:39:09;;;;;;;;;;;15.30;99.90;;;;;;5056513;28;1106;-46
2022/01/31 09:41:39;;;;;;;;;;;15.30;99.90;;;;;;5038723;28;1349;-45
2022/01/31 09:44:19;;;;;;;;;;;15.30;99.90;;;;;;5055865;28;1403;-46
2022/01/31 09:47:04;;;;;;;;;;;15.30;99.90;;;;;;5056034;28;1337;-53
2022/01/31 09:49:30;;;;;;;;;;;15.30;99.90;;;;;;5056278;28;1090;-53
2022/01/31 09:51:56;;;;;;;;;;;15.30;99.90;;;;;;5052955;28;1352;-53
2022/01/31 09:54:25;;;;;;;;;;;15.30;99.90;;;;;;5056451;28;1296;-46
2022/01/31 09:56:53;;;;;;;;;;;15.30;99.90;;;;;;5038646;28;1914;-46
2022/01/31 09:59:19;;;;;;;;;;;15.40;99.90;;;;;;5054475;28;1290;-52
2022/01/31 10:01:47;;;;;;;;;;;15.40;99.90;;;;;;5055455;28;1443;-46
2022/01/31 10:04:17;;;;;;;;;;;15.40;99.90;;;;;;5056270;28;1304;-46
2022/01/31 10:06:44;;;;;;;;;;;15.40;99.90;;;;;;5038337;28;1302;-46
2022/01/31 10:09:29;;;;;;;;;;;15.40;99.90;;;;;;5056003;28;1352;-46
2022/01/31 10:17:45;;;;;;;;;;;15.40;99.90;;;;;;5055309;28;1941;-53
2022/01/31 10:20:14;;;;;;;;;;;15.50;99.90;;;;;;5055706;28;1115;-53
2022/01/31 10:22:42;;;;;;;;;;;15.50;99.90;;;;;;5054899;28;1272;-53
2022/01/31 10:25:12;;;;;;;;;;;15.50;99.90;;;;;;5053549;28;1309;-52
2022/01/31 10:27:45;;;;;;;;;;;15.50;99.90;;;;;;5038757;28;1326;-53
2022/01/31 10:30:30;;;;;;;;;;;15.60;99.90;;;;;;5052383;28;1297;-52
2022/01/31 10:32:57;;;;;;;;;;;15.60;99.90;;;;;;5052445;28;874;-53
2022/01/31 10:35:25;;;;;;;;;;;15.60;99.90;;;;;;5037634;28;1796;-53
2022/01/31 10:37:56;;;;;;;;;;;15.70;99.90;;;;;;5053833;28;1959;-52
2022/01/31 10:46:04;;;;;;;;;;;15.90;99.90;;;;;;5055494;28;1150;-52
2022/01/31 10:56:52;;;;;;;;;;;16.20;99.90;;;;;;5055797;28;1914;-52
2022/01/31 10:59:26;;;;;;;;;;;16.20;99.90;;;;;;5051605;28;1606;-52
2022/01/31 11:01:53;;;;;;;;;;;16.20;99.90;;;;;;5037374;28;1220;-52
2022/01/31 11:04:19;;;;;;;;;;;16.30;99.90;;;;;;5053541;28;1265;-53
2022/01/31 11:06:46;;;;;;;;;;;16.30;99.90;;;;;;5054817;28;1301;-53
2022/01/31 11:09:18;;;;;;;;;;;16.40;99.90;;;;;;5055726;28;809;-52
2022/01/31 11:11:50;;;;;;;;;;;16.40;99.90;;;;;;5037716;28;1663;-53
2022/01/31 11:14:16;;;;;;;;;;;16.50;99.90;;;;;;5054137;28;1723;-52
2022/01/31 11:16:44;;;;;;;;;;;16.50;99.90;;;;;;5055470;28;1914;-53
2022/01/31 11:19:11;;;;;;;;;;;16.40;99.90;;;;;;5038546;28;805;-53
2022/01/31 11:21:44;;;;;;;;;;;16.50;99.90;;;;;;5055382;28;1758;-53
2022/01/31 11:24:18;;;;;;;;;;;16.50;99.90;;;;;;5054529;28;1150;-52
2022/01/31 11:26:47;;;;;;;;;;;16.50;99.90;;;;;;5055443;28;1320;-52
2022/01/31 11:29:14;;;;;;;;;;;16.50;99.90;;;;;;5059055;28;1663;-52
2022/01/31 11:31:41;;;;;;;;;;;16.50;99.90;;;;;;5058118;28;891;-52
2022/01/31 11:34:08;;;;;;;;;;;16.50;99.90;;;;;;5041834;28;868;-52
2022/01/31 11:36:37;;;;;;;;;;;16.40;99.90;;;;;;5058886;28;865;-53
2022/01/31 11:39:05;;;;;;;;;;;16.50;99.90;;;;;;5041489;28;1902;-53
2022/01/31 11:41:32;;;;;;;;;;;16.50;99.90;;;;;;5057504;28;962;-53
2022/01/31 11:44:01;;;;;;;;;;;16.50;99.90;;;;;;5059002;28;876;-53
2022/01/31 11:46:27;;;;;;;;;;;16.50;99.90;;;;;;5058825;28;1616;-53
2022/01/31 11:48:53;;;;;;;;;;;16.50;99.90;;;;;;5058332;28;1107;-53
2022/01/31 11:51:20;;;;;;;;;;;16.50;99.90;;;;;;5055478;28;1171;-45
2022/01/31 11:53:47;;;;;;;;;;;16.50;99.90;;;;;;5055797;28;1294;-45
2022/01/31 11:56:21;;;;;;;;;;;16.60;99.90;;;;;;5057613;28;1221;-45
2022/01/31 11:58:49;;;;;;;;;;;16.60;99.90;;;;;;5059663;28;1906;-45
2022/01/31 12:01:16;;;;;;;;;;;16.60;99.90;;;;;;5057857;28;1255;-45
2022/01/31 12:03:56;;;;;;;;;;;16.60;99.90;;;;;;5058457;28;1309;-53
2022/01/31 12:06:23;;;;;;;;;;;16.60;99.90;;;;;;5040360;28;1131;-53
2022/01/31 12:08:50;;;;;;;;;;;16.60;99.90;;;;;;5058047;28;1143;-53
2022/01/31 12:11:23;;;;;;;;;;;16.60;99.90;;;;;;5057304;28;926;-50
2022/01/31 12:13:52;;;;;;;;;;;16.60;99.90;;;;;;5057922;28;1059;-50
2022/01/31 12:16:47;;;;;;;;;;;16.60;99.90;;;;;;5058368;28;905;-50
2022/01/31 12:22:10;;;;;;;;;;;16.50;99.90;;;;;;5057057;28;1409;-50
2022/01/31 12:24:39;;;;;;;;;;;16.50;99.90;;;;;;5056474;28;1340;-51
2022/01/31 12:27:05;;;;;;;;;;;16.60;99.90;;;;;;5059618;28;1086;-44
2022/01/31 12:29:32;;;;;;;;;;;16.60;99.90;;;;;;5057541;28;1146;-47
2022/01/31 12:32:09;;;;;;;;;;;16.60;99.90;;;;;;5056821;28;1036;-46
2022/01/31 12:34:37;;;;;;;;;;;16.60;99.90;;;;;;5056957;28;1190;-46
2022/01/31 12:37:04;;;;;;;;;;;16.60;99.90;;;;;;5057757;28;1909;-46
2022/01/31 12:39:42;;;;;;;;;;;16.60;99.90;;;;;;5057583;28;1024;-45
2022/01/31 12:42:42;;;;;;;;;;;16.60;99.90;;;;;;5057600;28;1035;-46
2022/01/31 12:45:09;;;;;;;;;;;16.60;99.90;;;;;;5056933;28;1246;-46
2022/01/31 12:47:35;;;;;;;;;;;16.60;99.90;;;;;;5057462;28;1197;-46
2022/01/31 12:50:20;;;;;;;;;;;16.60;99.90;;;;;;5055795;28;1345;-46
2022/01/31 12:52:46;;;;;;;;;;;16.70;99.90;;;;;;5056437;28;1298;-46
2022/01/31 12:55:13;;;;;;;;;;;16.70;99.90;;;;;;5057631;28;1368;-46
2022/01/31 12:57:49;;;;;;;;;;;16.70;99.90;;;;;;5059265;28;1902;-46
2022/01/31 13:00:16;;;;;;;;;;;16.70;99.90;;;;;;5027452;28;1229;-46
2022/01/31 13:02:49;;;;;;;;;;;16.80;99.90;;;;;;5057204;28;1145;-46
2022/01/31 13:05:15;;;;;;;;;;;16.80;99.90;;;;;;5056604;28;1428;-46
2022/01/31 13:07:41;;;;;;;;;;;16.80;99.90;;;;;;5057018;28;1186;-46
2022/01/31 13:10:10;;;;;;;;;;;16.80;99.90;;;;;;5056851;28;1103;-46
2022/01/31 13:12:36;;;;;;;;;;;16.80;99.90;;;;;;5055906;28;1161;-45
2022/01/31 13:15:03;;;;;;;;;;;16.80;99.90;;;;;;5054627;28;1177;-46
2022/01/31 13:17:29;;;;;;;;;;;16.80;99.90;;;;;;5056455;28;1946;-49
2022/01/31 13:19:59;;;;;;;;;;;16.90;99.90;;;;;;5055963;28;1146;-45
2022/01/31 13:22:37;;;;;;;;;;;16.80;99.90;;;;;;5055270;28;1000;-46
2022/01/31 13:25:05;;;;;;;;;;;16.80;99.90;;;;;;5057346;28;802;-46
2022/01/31 13:27:32;;;;;;;;;;;16.90;99.90;;;;;;5057031;28;983;-46
2022/01/31 13:29:58;;;;;;;;;;;16.80;99.90;;;;;;5056623;28;1095;-46
2022/01/31 13:32:30;;;;;;;;;;;16.80;99.90;;;;;;5056889;28;773;-46
2022/01/31 13:34:56;;;;;;;;;;;16.80;99.90;;;;;;5055905;28;793;-46
2022/01/31 13:37:28;;;;;;;;;;;16.80;99.90;;;;;;5056135;28;1975;-46
2022/01/31 13:39:58;;;;;;;;;;;16.80;99.90;;;;;;5056666;28;829;-46
2022/01/31 13:42:30;;;;;;;;;;;16.80;99.90;;;;;;5055007;28;1141;-52
2022/01/31 13:44:58;;;;;;;;;;;16.80;99.90;;;;;;5053042;28;917;-52
2022/01/31 13:50:49;;;;;;;;;;;16.80;99.90;;;;;;5037792;28;1239;-52
2022/01/31 13:53:17;;;;;;;;;;;16.80;99.90;;;;;;5056257;28;1126;-52
2022/01/31 13:55:51;;;;;;;;;;;16.80;99.90;;;;;;5036789;28;945;-52
2022/01/31 13:58:24;;;;;;;;;;;16.80;99.90;;;;;;5053305;28;1977;-52
2022/01/31 14:00:51;;;;;;;;;;;16.80;99.90;;;;;;5055647;28;1205;-52
2022/01/31 14:03:21;;;;;;;;;;;16.80;99.90;;;;;;5055926;28;1376;-52
2022/01/31 14:05:58;;;;;;;;;;;16.80;99.90;;;;;;5055641;28;1190;-52
2022/01/31 14:08:26;;;;;;;;;;;16.80;99.90;;;;;;5053947;28;1418;-52
2022/01/31 14:11:13;;;;;;;;;;;16.80;99.90;;;;;;5055672;28;1367;-52
2022/01/31 14:13:43;;;;;;;;;;;16.80;99.90;;;;;;5052895;28;1805;-52
2022/01/31 14:16:11;;;;;;;;;;;16.80;99.90;;;;;;5054591;28;1338;-52
2022/01/31 14:18:37;;;;;;;;;;;16.80;99.90;;;;;;5055266;28;1914;-52
2022/01/31 14:21:05;;;;;;;;;;;16.80;99.90;;;;;;5055382;28;1205;-52
2022/01/31 14:23:35;;;;;;;;;;;16.80;99.90;;;;;;5055597;28;1300;-52
2022/01/31 14:26:02;;;;;;;;;;;16.80;99.90;;;;;;5055900;28;1313;-52
2022/01/31 14:28:35;;;;;;;;;;;16.80;99.90;;;;;;5057751;28;1868;-52
2022/01/31 14:31:01;;;;;;;;;;;16.80;99.90;;;;;;5050749;28;1449;-52
2022/01/31 14:33:27;;;;;;;;;;;16.80;99.90;;;;;;5056053;28;855;-52
2022/01/31 14:36:07;;;;;;;;;;;16.80;99.90;;;;;;5052757;28;1596;-52
2022/01/31 14:38:46;;;;;;;;;;;16.80;99.90;;;;;;5055344;28;1910;-52
2022/01/31 14:41:27;;;;;;;;;;;16.80;99.90;;;;;;5053539;28;978;-52
2022/01/31 14:49:25;;;;;;;;;;;16.70;99.90;;;;;;5055475;28;1177;-53
2022/01/31 14:51:51;;;;;;;;;;;16.60;99.90;;;;;;5054726;28;1290;-52
2022/01/31 14:54:18;;;;;;;;;;;16.50;99.90;;;;;;5054603;28;1528;-52
2022/01/31 14:56:48;;;;;;;;;;;16.40;99.90;;;;;;5053468;28;1162;-52
2022/01/31 14:59:14;;;;;;;;;;;16.40;99.90;;;;;;5054200;28;1942;-53
2022/01/31 15:01:41;;;;;;;;;;;16.50;99.90;;;;;;5056831;28;1425;-52
2022/01/31 15:04:16;;;;;;;;;;;16.50;99.90;;;;;;5041861;28;918;-53
2022/01/31 15:06:42;;;;;;;;;;;16.50;99.90;;;;;;5059219;28;1087;-52
2022/01/31 15:09:08;;;;;;;;;;;16.50;99.90;;;;;;5061209;28;1405;-52
2022/01/31 15:11:34;;;;;;;;;;;16.50;99.90;;;;;;5060230;28;1682;-52
2022/01/31 15:14:01;;;;;;;;;;;16.50;99.90;;;;;;5059381;28;777;-52
2022/01/31 15:16:30;;;;;;;;;;;16.60;99.90;;;;;;5059551;28;963;-52
2022/01/31 15:18:57;;;;;;;;;;;16.60;99.90;;;;;;5059756;28;1997;-53